createdAt,value
2023-04-14T00:01:16.659Z,29.53
2023-04-14T00:04:05.317Z,29.20
2023-04-14T00:06:57.051Z,29.90
2023-04-14T00:09:46.790Z,30.83
2023-04-14T00:12:35.218Z,29.10
2023-04-14T00:15:23.725Z,29.93
2023-04-14T00:18:12.107Z,29.23
2023-04-14T00:21:01.133Z,29.70
2023-04-14T00:23:49.599Z,29.83
2023-04-14T00:26:39.371Z,31.20
2023-04-14T00:29:27.781Z,33.77
2023-04-14T00:32:16.812Z,30.67
2023-04-14T00:35:05.816Z,30.63
2023-04-14T00:37:56.603Z,29.90
2023-04-14T00:40:45.101Z,34.90
2023-04-14T00:43:34.812Z,29.40
2023-04-14T00:46:23.623Z,30.10
2023-04-14T00:49:13.709Z,30.13
2023-04-14T00:52:02.738Z,29.80
2023-04-14T00:54:51.321Z,30.53
2023-04-14T00:57:40.098Z,29.80
2023-04-14T01:00:29.849Z,30.40
2023-04-14T01:03:18.337Z,30.30
2023-04-14T01:06:07.166Z,29.83
2023-04-14T01:08:57.745Z,29.90
2023-04-14T01:11:51.903Z,33.03
2023-04-14T01:14:43.412Z,30.47
2023-04-14T01:17:37.183Z,30.77
2023-04-14T01:20:32.331Z,30.13
2023-04-14T01:23:24.986Z,30.80
2023-04-14T01:26:20.816Z,29.63
2023-04-14T01:29:35.308Z,30.47
2023-04-14T01:32:27.120Z,30.30
2023-04-14T01:35:20.822Z,30.27
2023-04-14T01:38:13.880Z,30.17
2023-04-14T01:41:06.730Z,30.10
2023-04-14T01:43:55.848Z,31.20
2023-04-14T01:46:45.241Z,29.77
2023-04-14T01:49:37.821Z,32.33
2023-04-14T01:52:27.903Z,30.27
2023-04-14T01:55:18.717Z,30.13
2023-04-14T01:58:08.624Z,34.17
2023-04-14T02:00:58.786Z,30.33
2023-04-14T02:03:48.201Z,29.63
2023-04-14T02:06:38.926Z,29.90
2023-04-14T02:09:27.882Z,29.60
2023-04-14T02:12:18.109Z,29.30
2023-04-14T02:15:08.311Z,31.13
2023-04-14T02:17:58.899Z,29.83
2023-04-14T02:20:48.194Z,30.03
2023-04-14T02:23:37.961Z,30.27
2023-04-14T02:26:29.066Z,30.10
2023-04-14T02:29:22.057Z,31.00
2023-04-14T02:32:15.938Z,29.90
2023-04-14T02:35:09.465Z,30.40
2023-04-14T02:38:06.914Z,32.10
2023-04-14T02:40:56.716Z,30.50
2023-04-14T02:43:48.715Z,30.60
2023-04-14T02:46:43.771Z,37.90
2023-04-14T02:49:34.344Z,31.53
2023-04-14T02:52:24.658Z,30.07
2023-04-14T02:55:15.731Z,30.20
2023-04-14T02:58:06.194Z,30.03
2023-04-14T03:00:59.149Z,31.83
2023-04-14T03:03:48.053Z,29.77
2023-04-14T03:06:39.810Z,29.73
2023-04-14T03:09:28.543Z,30.00
2023-04-14T03:12:18.310Z,31.23
2023-04-14T03:15:09.172Z,31.07
2023-04-14T03:17:58.548Z,31.23
2023-04-14T03:20:50.211Z,30.60
2023-04-14T03:23:39.768Z,31.20
2023-04-14T03:26:31.053Z,30.33
2023-04-14T03:29:21.731Z,30.83
2023-04-14T03:32:12.447Z,32.60
2023-04-14T03:35:03.418Z,30.57
2023-04-14T03:37:53.171Z,30.40
2023-04-14T03:40:44.427Z,30.20
2023-04-14T03:43:34.370Z,30.13
2023-04-14T03:46:28.939Z,31.47
2023-04-14T03:49:20.975Z,31.20
2023-04-14T03:52:13.299Z,31.20
2023-04-14T03:55:06.443Z,31.70
2023-04-14T03:57:57.698Z,30.63
2023-04-14T04:00:47.703Z,31.50
2023-04-14T04:03:38.412Z,31.00
2023-04-14T04:06:28.871Z,29.60
2023-04-14T04:09:18.111Z,31.70
2023-04-14T04:12:07.440Z,31.40
2023-04-14T04:14:56.454Z,31.30
2023-04-14T04:17:45.503Z,30.37
2023-04-14T04:20:37.010Z,29.27
2023-04-14T04:23:27.490Z,31.23
2023-04-14T04:26:17.090Z,31.03
2023-04-14T04:29:05.907Z,29.40
2023-04-14T04:31:55.685Z,30.57
2023-04-14T04:34:45.549Z,29.73
2023-04-14T04:37:34.649Z,30.10
2023-04-14T04:40:24.715Z,31.10
2023-04-14T04:43:13.848Z,30.90
2023-04-14T04:46:26.649Z,31.10
2023-04-14T04:49:15.071Z,32.27
2023-04-14T04:52:03.455Z,30.93
2023-04-14T04:54:52.593Z,31.10
2023-04-14T04:57:42.383Z,32.33
2023-04-14T05:00:30.708Z,31.60
2023-04-14T05:03:19.067Z,29.87
2023-04-14T05:06:07.619Z,30.60
2023-04-14T05:08:56.549Z,31.37
2023-04-14T05:11:44.912Z,31.97
2023-04-14T05:14:34.663Z,32.03
2023-04-14T05:17:23.199Z,33.73
2023-04-14T05:20:12.541Z,31.77
2023-04-14T05:23:00.915Z,30.70
2023-04-14T05:25:49.281Z,31.43
2023-04-14T05:28:37.615Z,30.40
2023-04-14T05:31:27.431Z,30.90
2023-04-14T05:34:16.121Z,30.70
2023-04-14T05:37:04.466Z,30.37
2023-04-14T05:39:52.815Z,29.93
2023-04-14T05:42:41.932Z,30.10
2023-04-14T05:45:30.320Z,32.23
2023-04-14T05:48:20.057Z,33.97
2023-04-14T05:51:08.341Z,30.80
2023-04-14T05:53:56.940Z,31.07
2023-04-14T05:56:45.336Z,31.10
2023-04-14T05:59:33.652Z,29.80
2023-04-14T06:02:22.173Z,30.60
2023-04-14T06:05:12.932Z,30.90
2023-04-14T06:08:01.464Z,30.43
2023-04-14T06:10:49.839Z,30.47
2023-04-14T06:13:38.187Z,30.33
2023-04-14T06:16:26.534Z,30.60
2023-04-14T06:19:14.841Z,33.27
2023-04-14T06:22:05.593Z,33.23
2023-04-14T06:24:54.000Z,32.63
2023-04-14T06:27:42.337Z,31.60
2023-04-14T06:30:32.287Z,28.93
2023-04-14T06:33:20.605Z,31.43
2023-04-14T06:36:09.428Z,30.13
2023-04-14T06:38:59.564Z,29.40
2023-04-14T06:41:48.190Z,30.20
2023-04-14T06:44:36.547Z,30.47
2023-04-14T06:47:25.513Z,28.53
2023-04-14T06:50:14.510Z,29.80
2023-04-14T06:53:03.176Z,29.50
2023-04-14T06:55:59.513Z,30.30
2023-04-14T06:58:48.426Z,29.10
2023-04-14T07:01:55.234Z,29.63
2023-04-14T07:05:02.456Z,30.50
2023-04-14T07:07:51.079Z,29.73
2023-04-14T07:10:39.522Z,30.40
2023-04-14T07:13:29.411Z,29.53
2023-04-14T07:16:17.937Z,28.20
2023-04-14T07:19:06.353Z,29.03
2023-04-14T07:21:54.707Z,28.50
2023-04-14T07:24:43.093Z,28.63
2023-04-14T07:27:32.012Z,29.83
2023-04-14T07:30:22.274Z,28.43
2023-04-14T07:33:10.700Z,28.33
2023-04-14T07:36:03.559Z,28.63
2023-04-14T07:38:52.478Z,29.03
2023-04-14T07:41:41.306Z,28.60
2023-04-14T07:44:29.699Z,26.80
2023-04-14T07:47:19.552Z,27.30
2023-04-14T07:50:08.959Z,27.60
2023-04-14T07:52:57.318Z,26.40
2023-04-14T07:55:45.772Z,27.93
2023-04-14T07:58:34.200Z,26.73
2023-04-14T08:01:22.709Z,26.97
2023-04-14T08:04:12.518Z,28.90
2023-04-14T08:07:01.515Z,30.53
2023-04-14T08:09:50.658Z,28.27
2023-04-14T08:12:39.064Z,26.73
2023-04-14T08:15:27.672Z,25.83
2023-04-14T08:18:16.389Z,28.13
2023-04-14T08:21:06.913Z,28.13
2023-04-14T08:23:55.260Z,26.83
2023-04-14T08:26:43.627Z,26.53
2023-04-14T08:29:31.981Z,26.73
2023-04-14T08:32:20.440Z,26.53
2023-04-14T08:35:35.927Z,28.90
2023-04-14T08:38:20.970Z,28.10
2023-04-14T08:41:10.011Z,24.60
2023-04-14T08:43:58.426Z,27.70
2023-04-14T08:46:46.955Z,28.13
2023-04-14T08:49:42.133Z,26.93
2023-04-14T08:52:32.119Z,26.63
2023-04-14T08:55:22.371Z,26.90
2023-04-14T08:58:11.584Z,26.50
2023-04-14T09:01:00.442Z,28.50
2023-04-14T09:03:49.724Z,27.00
2023-04-14T09:06:38.214Z,27.13
2023-04-14T09:09:26.828Z,26.43
2023-04-14T09:12:18.166Z,28.33
2023-04-14T09:15:07.782Z,26.63
2023-04-14T09:17:56.564Z,25.10
2023-04-14T09:20:47.955Z,25.57
2023-04-14T09:23:56.411Z,26.20
2023-04-14T09:26:44.805Z,24.70
2023-04-14T09:29:36.537Z,25.00
2023-04-14T09:32:24.888Z,26.90
2023-04-14T09:35:14.292Z,25.53
2023-04-14T09:38:03.014Z,23.70
2023-04-14T09:40:54.859Z,24.63
2023-04-14T09:43:44.161Z,24.90
2023-04-14T09:46:33.930Z,24.07
2023-04-14T09:49:22.372Z,24.60
2023-04-14T09:52:11.334Z,25.03
2023-04-14T09:55:00.028Z,24.20
2023-04-14T09:57:48.503Z,24.13
2023-04-14T10:00:37.010Z,24.53
2023-04-14T10:03:38.741Z,21.00
2023-04-14T10:06:27.613Z,23.60
2023-04-14T10:09:22.151Z,22.60
2023-04-14T10:12:13.256Z,22.57
2023-04-14T10:15:01.651Z,20.43
2023-04-14T10:17:50.069Z,21.70
2023-04-14T10:20:39.823Z,25.00
2023-04-14T10:23:28.561Z,28.27
2023-04-14T10:26:17.207Z,19.70
2023-04-14T10:29:05.837Z,23.87
2023-04-14T10:31:56.652Z,20.13
2023-04-14T10:34:56.292Z,21.90
2023-04-14T10:37:53.696Z,23.30
2023-04-14T10:40:48.563Z,20.23
2023-04-14T10:43:38.016Z,20.03
2023-04-14T10:46:26.660Z,23.10
2023-04-14T10:49:15.120Z,19.63
2023-04-14T10:52:06.379Z,19.30
2023-04-14T10:55:00.984Z,19.87
2023-04-14T10:57:49.578Z,20.10
2023-04-14T11:00:39.245Z,18.30
2023-04-14T11:03:32.428Z,19.50
2023-04-14T11:06:49.714Z,19.80
2023-04-14T11:09:38.160Z,19.50
2023-04-14T11:12:28.397Z,19.50
2023-04-14T11:15:17.281Z,19.10
2023-04-14T11:18:13.167Z,19.10
2023-04-14T11:21:06.226Z,18.63
2023-04-14T11:23:54.589Z,18.03
2023-04-14T11:26:44.218Z,19.70
2023-04-14T11:29:34.453Z,18.20
2023-04-14T11:32:22.962Z,18.37
2023-04-14T11:35:12.151Z,18.73
2023-04-14T11:38:01.828Z,18.10
2023-04-14T11:40:50.629Z,18.57
2023-04-14T11:43:39.216Z,18.90
2023-04-14T11:46:29.240Z,20.27
2023-04-14T11:49:17.701Z,18.73
2023-04-14T11:52:07.808Z,17.40
2023-04-14T11:54:56.335Z,19.00
2023-04-14T11:57:45.869Z,17.77
2023-04-14T12:00:34.396Z,17.87
2023-04-14T12:03:27.960Z,17.87
2023-04-14T12:06:16.598Z,19.40
2023-04-14T12:09:09.861Z,18.00
2023-04-14T12:11:58.290Z,18.27
2023-04-14T12:14:48.150Z,19.27
2023-04-14T12:17:37.284Z,17.17
2023-04-14T12:20:27.469Z,17.60
2023-04-14T12:23:16.828Z,18.50
2023-04-14T12:26:10.707Z,19.50
2023-04-14T12:28:59.191Z,18.30
2023-04-14T12:31:47.629Z,19.50
2023-04-14T12:34:36.016Z,17.57
2023-04-14T12:37:29.409Z,18.20
2023-04-14T12:40:18.620Z,17.73
2023-04-14T12:43:07.249Z,17.73
2023-04-14T12:45:58.272Z,17.70
2023-04-14T12:48:48.395Z,17.73
2023-04-14T12:51:39.894Z,17.50
2023-04-14T12:54:47.422Z,17.10
2023-04-14T12:57:36.625Z,18.63
2023-04-14T13:00:27.199Z,18.00
2023-04-14T13:03:15.671Z,18.27
2023-04-14T13:06:04.073Z,18.27
2023-04-14T13:08:54.079Z,17.13
2023-04-14T13:11:44.310Z,16.87
2023-04-14T13:14:32.754Z,17.30
2023-04-14T13:17:21.194Z,18.20
2023-04-14T13:20:11.202Z,17.90
2023-04-14T13:22:59.577Z,20.10
2023-04-14T13:25:48.415Z,18.70
2023-04-14T13:28:38.216Z,18.47
2023-04-14T13:31:26.828Z,18.90
2023-04-14T13:34:15.480Z,21.60
2023-04-14T13:37:03.860Z,18.43
2023-04-14T13:39:52.202Z,19.60
2023-04-14T13:42:40.627Z,20.67
2023-04-14T13:45:30.778Z,17.57
2023-04-14T13:48:19.279Z,18.93
2023-04-14T13:51:07.848Z,19.80
2023-04-14T13:53:56.581Z,18.83
2023-04-14T13:56:44.957Z,18.40
2023-04-14T13:59:33.318Z,18.63
2023-04-14T14:02:23.816Z,18.50
2023-04-14T14:05:12.584Z,20.00
2023-04-14T14:08:00.948Z,19.70
2023-04-14T14:10:49.330Z,18.10
2023-04-14T14:13:39.483Z,19.30
2023-04-14T14:19:20.694Z,18.70
2023-04-14T14:22:09.215Z,19.30
2023-04-14T14:25:10.829Z,18.97
2023-04-14T14:28:03.950Z,19.13
2023-04-14T14:30:52.336Z,18.47
2023-04-14T14:33:40.738Z,20.33
2023-04-14T14:36:30.677Z,18.93
2023-04-14T14:39:19.189Z,18.57
2023-04-14T14:42:07.518Z,19.70
2023-04-14T14:44:55.966Z,19.10
2023-04-14T14:47:46.280Z,19.43
2023-04-14T14:50:34.703Z,18.77
2023-04-14T14:53:24.396Z,19.70
2023-04-14T14:56:12.728Z,20.60
2023-04-14T14:59:01.423Z,20.30
2023-04-14T15:01:49.852Z,22.00
2023-04-14T15:04:38.961Z,19.50
2023-04-14T15:07:27.376Z,19.57
2023-04-14T15:10:17.406Z,19.33
2023-04-14T15:13:06.612Z,18.97
2023-04-14T15:15:56.063Z,19.53
2023-04-14T15:18:44.878Z,20.17
2023-04-14T15:21:33.433Z,21.03
2023-04-14T15:24:21.915Z,19.47
2023-04-14T15:27:11.630Z,19.27
2023-04-14T15:30:00.108Z,19.37
2023-04-14T15:32:48.498Z,19.57
2023-04-14T15:35:38.642Z,20.13
2023-04-14T15:38:27.158Z,19.07
2023-04-14T15:41:15.533Z,19.50
2023-04-14T15:44:05.855Z,19.63
2023-04-14T15:46:54.395Z,20.10
2023-04-14T15:49:42.795Z,19.17
2023-04-14T15:52:36.826Z,19.07
2023-04-14T15:55:25.399Z,20.20
2023-04-14T15:58:13.759Z,20.23
2023-04-14T16:01:07.595Z,21.70
2023-04-14T16:03:56.002Z,20.40
2023-04-14T16:06:46.115Z,18.90
2023-04-14T16:09:35.236Z,19.83
2023-04-14T16:12:24.220Z,18.37
2023-04-14T16:15:12.996Z,18.17
2023-04-14T16:18:02.994Z,19.90
2023-04-14T16:20:51.438Z,19.30
2023-04-14T16:23:39.756Z,19.43
2023-04-14T16:26:28.134Z,19.10
2023-04-14T16:29:16.745Z,19.03
2023-04-14T16:32:05.190Z,20.67
2023-04-14T16:34:55.028Z,18.57
2023-04-14T16:37:43.345Z,17.80
2023-04-14T16:40:32.018Z,17.40
2023-04-14T16:43:20.492Z,18.37
2023-04-14T16:46:08.958Z,18.80
2023-04-14T16:48:57.334Z,17.77
2023-04-14T16:51:47.173Z,17.37
2023-04-14T16:54:36.738Z,19.70
2023-04-14T16:57:25.136Z,18.80
2023-04-14T17:00:14.198Z,18.40
2023-04-14T17:03:02.781Z,20.70
2023-04-14T17:05:51.522Z,17.63
2023-04-14T17:08:41.518Z,17.83
2023-04-14T17:11:29.899Z,18.50
2023-04-14T17:14:18.353Z,17.83
2023-04-14T17:17:07.300Z,18.70
2023-04-14T17:19:56.950Z,17.80
2023-04-14T17:22:45.541Z,17.53
2023-04-14T17:25:35.692Z,18.60
2023-04-14T17:28:24.496Z,18.27
2023-04-14T17:31:14.150Z,17.07
2023-04-14T17:34:03.136Z,17.90
2023-04-14T17:36:51.972Z,17.00
2023-04-14T17:39:40.359Z,17.63
2023-04-14T17:42:30.972Z,19.57
2023-04-14T17:45:23.063Z,19.70
2023-04-14T17:48:11.415Z,18.40
2023-04-14T17:51:00.158Z,18.60
2023-04-14T17:53:49.263Z,18.90
2023-04-14T17:56:37.732Z,18.50
2023-04-14T17:59:27.413Z,18.30
2023-04-14T18:02:16.349Z,18.43
2023-04-14T18:05:05.506Z,20.90
2023-04-14T18:07:55.286Z,19.80
2023-04-14T18:10:45.538Z,19.30
2023-04-14T18:13:34.717Z,18.10
2023-04-14T18:16:24.572Z,20.07
2023-04-14T18:19:13.706Z,20.13
2023-04-14T18:22:03.285Z,19.73
2023-04-14T18:24:52.052Z,19.93
2023-04-14T18:30:32.060Z,19.53
2023-04-14T18:33:21.838Z,21.20
2023-04-14T18:36:10.289Z,19.60
2023-04-14T18:38:59.896Z,21.70
2023-04-14T18:41:48.423Z,21.00
2023-04-14T18:44:36.878Z,21.50
2023-04-14T18:47:25.408Z,19.93
2023-04-14T18:50:15.377Z,21.53
2023-04-14T18:53:03.714Z,20.50
2023-04-14T18:55:52.579Z,20.53
2023-04-14T18:58:41.080Z,21.23
2023-04-14T19:01:29.602Z,22.10
2023-04-14T19:04:17.976Z,21.17
2023-04-14T19:07:07.753Z,19.73
2023-04-14T19:09:56.083Z,19.90
2023-04-14T19:12:44.459Z,20.80
2023-04-14T19:15:32.874Z,19.37
2023-04-14T19:18:21.196Z,23.20
2023-04-14T19:21:09.680Z,19.50
2023-04-14T19:23:59.706Z,19.93
2023-04-14T19:26:48.047Z,23.23
2023-04-14T19:29:37.049Z,19.80
2023-04-14T19:32:25.594Z,22.10
2023-04-14T19:35:13.943Z,21.80
2023-04-14T19:38:02.547Z,21.80
2023-04-14T19:40:53.860Z,21.93
2023-04-14T19:43:42.277Z,22.20
2023-04-14T19:46:30.675Z,23.83
2023-04-14T19:49:19.153Z,21.73
2023-04-14T19:52:07.538Z,21.83
2023-04-14T19:54:56.878Z,21.80
2023-04-14T19:57:47.049Z,22.30
2023-04-14T20:00:40.862Z,22.43
2023-04-14T20:03:29.642Z,22.83
2023-04-14T20:06:19.758Z,21.80
2023-04-14T20:09:08.085Z,22.50
2023-04-14T20:11:56.447Z,22.43
2023-04-14T20:14:46.152Z,23.30
2023-04-14T20:17:35.072Z,22.60
2023-04-14T20:20:23.789Z,23.20
2023-04-14T20:23:12.256Z,23.10
2023-04-14T20:26:01.447Z,23.43
2023-04-14T20:28:50.372Z,21.50
2023-04-14T20:31:41.649Z,22.73
2023-04-14T20:34:30.041Z,22.80
2023-04-14T20:37:18.995Z,22.70
2023-04-14T20:40:08.775Z,23.20
2023-04-14T20:42:57.079Z,23.40
2023-04-14T20:45:45.688Z,23.40
2023-04-14T20:48:35.448Z,24.40
2023-04-14T20:51:24.012Z,23.07
2023-04-14T20:54:12.377Z,25.13
2023-04-14T20:57:03.558Z,24.73
2023-04-14T20:59:52.029Z,23.90
2023-04-14T21:02:40.509Z,24.33
2023-04-14T21:05:30.331Z,24.10
2023-04-14T21:08:19.494Z,25.57
2023-04-14T21:11:16.742Z,24.70
2023-04-14T21:15:31.268Z,23.00
2023-04-14T21:17:14.841Z,27.20
2023-04-14T21:20:03.925Z,25.00
2023-04-14T21:22:54.801Z,24.23
2023-04-14T21:25:43.331Z,25.03
2023-04-14T21:28:32.471Z,23.43
2023-04-14T21:31:21.102Z,24.23
2023-04-14T21:34:09.477Z,24.00
2023-04-14T21:36:58.254Z,25.67
2023-04-14T21:39:47.985Z,26.43
2023-04-14T21:42:36.377Z,25.43
2023-04-14T21:45:26.708Z,25.10
2023-04-14T21:48:15.116Z,25.27
2023-04-14T21:51:04.095Z,25.93
2023-04-14T21:53:53.170Z,27.03
2023-04-14T21:56:42.887Z,25.03
2023-04-14T21:59:31.342Z,25.63
2023-04-14T22:02:20.505Z,25.43
2023-04-14T22:05:09.808Z,26.00
2023-04-14T22:07:58.157Z,26.20
2023-04-14T22:10:47.434Z,26.90
2023-04-14T22:13:37.162Z,25.77
2023-04-14T22:16:25.613Z,26.60
2023-04-14T22:19:14.245Z,28.43
2023-04-14T22:22:02.601Z,27.20
2023-04-14T22:24:51.730Z,27.70
2023-04-14T22:27:40.073Z,28.33
2023-04-14T22:30:29.968Z,26.50
2023-04-14T22:33:18.347Z,24.70
2023-04-14T22:36:07.596Z,27.80
2023-04-14T22:38:55.927Z,28.50
2023-04-14T22:41:45.429Z,30.30
2023-04-14T22:44:33.784Z,27.70
2023-04-14T22:47:23.551Z,27.07
2023-04-14T22:50:12.175Z,31.17
2023-04-14T22:53:01.933Z,28.50
2023-04-14T22:55:50.317Z,29.43
2023-04-14T22:58:39.800Z,28.63
2023-04-14T23:01:29.269Z,26.73
2023-04-14T23:04:19.058Z,27.33
2023-04-14T23:07:07.524Z,28.90
2023-04-14T23:09:55.901Z,28.33
2023-04-14T23:12:44.242Z,29.33
2023-04-14T23:15:32.734Z,28.97
2023-04-14T23:18:21.221Z,28.53
2023-04-14T23:21:11.768Z,30.30
2023-04-14T23:24:00.190Z,28.50
2023-04-14T23:26:48.509Z,27.53
2023-04-14T23:29:37.196Z,28.10
2023-04-14T23:32:25.645Z,28.13
2023-04-14T23:35:14.025Z,28.90
2023-04-14T23:38:04.140Z,29.53
2023-04-14T23:40:58.650Z,30.50
2023-04-14T23:43:49.149Z,30.13
2023-04-14T23:46:37.701Z,31.23
2023-04-14T23:49:33.279Z,28.27
2023-04-14T23:52:23.913Z,29.63
2023-04-14T23:55:13.663Z,29.13
